KDLS/DLS METAR and TAF weather

Enter ICAO airport designator
Station Type Date Time Source
KDLS METAR 2021/10/20 06:53 UTC NOAA

KDLS 200653Z AUTO 00000KT 10SM CLR 12/04 A2972 RMK AO2 SLP063 T01220044


Station Type Date Time Source
KDLS Decoded METAR 2021/10/20 06:53 UTC NOAA

THE DALLES MUNICIPAL AIRPORT , OR, United States (KDLS) 45-37N 121-10W 71M
Oct 20, 2021 - 02:53 AM EDT / 2021.10.20 0653 UTC
Wind: Calm:0
Visibility: 10 mile(s):0
Sky conditions: clear
Temperature: 54.0 F (12.2 C)
Dew Point: 39.9 F (4.4 C)
Relative Humidity: 58%
Pressure (altimeter): 29.72 in. Hg (1006 hPa)
ob: KDLS 200653Z AUTO 00000KT 10SM CLR 12/04 A2972 RMK AO2 SLP063 T01220044
cycle: 7

Station Type Date Time Source
KDLS TAF 2021/10/20 06:24 UTC NOAA

TAF KDLS 200521Z 2006/2106 VRB04KT P6SM SCT120 BKN150
FM201000 VRB04KT P6SM -RA BKN060 OVC080
FM202000 31011KT P6SM BKN070
FM210200 VRB04KT P6SM SCT090 BKN150

Example: see airport list